sensor_id;sensor_type;location;lat;lon;timestamp;P1;durP1;ratioP1;P2;durP2;ratioP2
15216;SDS011;7711;46.634;14.318;2023-11-19T00:00:38;8.10;;;5.27;;
15216;SDS011;7711;46.634;14.318;2023-11-19T00:03:05;8.40;;;5.17;;
15216;SDS011;7711;46.634;14.318;2023-11-19T00:05:34;9.63;;;5.63;;
15216;SDS011;7711;46.634;14.318;2023-11-19T00:08:01;10.13;;;5.60;;
15216;SDS011;7711;46.634;14.318;2023-11-19T00:10:28;8.60;;;5.77;;
15216;SDS011;7711;46.634;14.318;2023-11-19T00:12:55;13.10;;;6.80;;
15216;SDS011;7711;46.634;14.318;2023-11-19T00:15:22;11.60;;;6.97;;
15216;SDS011;7711;46.634;14.318;2023-11-19T00:17:50;12.97;;;7.50;;
15216;SDS011;7711;46.634;14.318;2023-11-19T00:20:18;11.87;;;7.30;;
15216;SDS011;7711;46.634;14.318;2023-11-19T00:22:48;11.37;;;7.40;;
15216;SDS011;7711;46.634;14.318;2023-11-19T00:25:16;9.47;;;6.53;;
15216;SDS011;7711;46.634;14.318;2023-11-19T00:27:44;13.50;;;5.90;;
15216;SDS011;7711;46.634;14.318;2023-11-19T00:30:11;8.47;;;5.50;;
15216;SDS011;7711;46.634;14.318;2023-11-19T00:32:39;10.87;;;6.67;;
15216;SDS011;7711;46.634;14.318;2023-11-19T00:35:06;14.40;;;7.70;;
15216;SDS011;7711;46.634;14.318;2023-11-19T00:37:35;12.90;;;7.20;;
15216;SDS011;7711;46.634;14.318;2023-11-19T00:40:03;11.20;;;6.97;;
15216;SDS011;7711;46.634;14.318;2023-11-19T00:42:32;12.83;;;7.33;;
15216;SDS011;7711;46.634;14.318;2023-11-19T00:44:59;12.37;;;6.70;;
15216;SDS011;7711;46.634;14.318;2023-11-19T00:47:26;13.63;;;8.30;;
15216;SDS011;7711;46.634;14.318;2023-11-19T00:49:53;16.73;;;8.50;;
15216;SDS011;7711;46.634;14.318;2023-11-19T00:52:20;16.67;;;8.60;;
15216;SDS011;7711;46.634;14.318;2023-11-19T00:54:47;13.87;;;8.40;;
15216;SDS011;7711;46.634;14.318;2023-11-19T00:57:15;14.83;;;8.97;;
15216;SDS011;7711;46.634;14.318;2023-11-19T00:59:43;16.00;;;7.93;;
15216;SDS011;7711;46.634;14.318;2023-11-19T01:02:10;16.30;;;8.40;;
15216;SDS011;7711;46.634;14.318;2023-11-19T01:04:39;15.53;;;8.90;;
15216;SDS011;7711;46.634;14.318;2023-11-19T01:07:06;15.63;;;8.70;;
15216;SDS011;7711;46.634;14.318;2023-11-19T01:09:37;14.50;;;8.63;;
15216;SDS011;7711;46.634;14.318;2023-11-19T01:12:05;15.90;;;8.30;;
15216;SDS011;7711;46.634;14.318;2023-11-19T01:14:35;11.33;;;6.90;;
15216;SDS011;7711;46.634;14.318;2023-11-19T01:17:02;10.47;;;6.87;;
15216;SDS011;7711;46.634;14.318;2023-11-19T01:19:30;10.87;;;7.13;;
15216;SDS011;7711;46.634;14.318;2023-11-19T01:21:57;9.73;;;6.23;;
15216;SDS011;7711;46.634;14.318;2023-11-19T01:24:24;13.63;;;6.67;;
15216;SDS011;7711;46.634;14.318;2023-11-19T01:26:53;11.50;;;6.77;;
15216;SDS011;7711;46.634;14.318;2023-11-19T01:29:20;8.73;;;6.33;;
15216;SDS011;7711;46.634;14.318;2023-11-19T01:31:49;11.00;;;6.27;;
15216;SDS011;7711;46.634;14.318;2023-11-19T01:34:18;10.27;;;6.33;;
15216;SDS011;7711;46.634;14.318;2023-11-19T01:36:46;13.87;;;6.43;;
15216;SDS011;7711;46.634;14.318;2023-11-19T01:39:13;10.20;;;6.10;;
15216;SDS011;7711;46.634;14.318;2023-11-19T01:41:42;13.87;;;7.40;;
15216;SDS011;7711;46.634;14.318;2023-11-19T01:44:09;11.43;;;7.00;;
15216;SDS011;7711;46.634;14.318;2023-11-19T01:46:37;11.53;;;7.20;;
15216;SDS011;7711;46.634;14.318;2023-11-19T01:49:08;12.03;;;6.90;;
15216;SDS011;7711;46.634;14.318;2023-11-19T01:51:36;13.33;;;7.80;;
15216;SDS011;7711;46.634;14.318;2023-11-19T01:54:05;12.60;;;7.40;;
15216;SDS011;7711;46.634;14.318;2023-11-19T01:56:33;12.37;;;6.90;;
15216;SDS011;7711;46.634;14.318;2023-11-19T01:59:01;12.70;;;7.20;;
15216;SDS011;7711;46.634;14.318;2023-11-19T02:01:29;11.57;;;7.47;;
15216;SDS011;7711;46.634;14.318;2023-11-19T02:03:57;12.83;;;8.23;;
15216;SDS011;7711;46.634;14.318;2023-11-19T02:06:26;12.93;;;8.50;;
15216;SDS011;7711;46.634;14.318;2023-11-19T02:08:54;11.63;;;7.70;;
15216;SDS011;7711;46.634;14.318;2023-11-19T02:11:21;12.23;;;7.97;;
15216;SDS011;7711;46.634;14.318;2023-11-19T02:13:49;12.47;;;7.20;;
15216;SDS011;7711;46.634;14.318;2023-11-19T02:16:16;9.63;;;6.90;;
15216;SDS011;7711;46.634;14.318;2023-11-19T02:18:43;10.67;;;6.87;;
15216;SDS011;7711;46.634;14.318;2023-11-19T02:21:10;9.23;;;6.67;;
15216;SDS011;7711;46.634;14.318;2023-11-19T02:23:38;9.20;;;6.70;;
15216;SDS011;7711;46.634;14.318;2023-11-19T02:26:09;11.50;;;7.03;;
15216;SDS011;7711;46.634;14.318;2023-11-19T02:28:42;11.73;;;6.80;;
15216;SDS011;7711;46.634;14.318;2023-11-19T02:31:09;9.37;;;7.17;;
15216;SDS011;7711;46.634;14.318;2023-11-19T02:33:37;9.70;;;6.40;;
15216;SDS011;7711;46.634;14.318;2023-11-19T02:36:04;13.07;;;6.67;;
15216;SDS011;7711;46.634;14.318;2023-11-19T02:38:32;11.13;;;6.77;;
15216;SDS011;7711;46.634;14.318;2023-11-19T02:41:01;11.33;;;7.10;;
15216;SDS011;7711;46.634;14.318;2023-11-19T02:43:30;13.53;;;6.30;;
15216;SDS011;7711;46.634;14.318;2023-11-19T02:45:59;11.10;;;7.07;;
15216;SDS011;7711;46.634;14.318;2023-11-19T02:48:27;9.37;;;7.17;;
15216;SDS011;7711;46.634;14.318;2023-11-19T02:50:54;10.60;;;6.60;;
15216;SDS011;7711;46.634;14.318;2023-11-19T02:53:23;11.60;;;7.00;;
15216;SDS011;7711;46.634;14.318;2023-11-19T02:55:52;9.80;;;6.30;;
15216;SDS011;7711;46.634;14.318;2023-11-19T02:58:26;10.80;;;5.93;;
15216;SDS011;7711;46.634;14.318;2023-11-19T03:00:53;9.23;;;6.57;;
15216;SDS011;7711;46.634;14.318;2023-11-19T03:03:24;13.87;;;7.23;;
15216;SDS011;7711;46.634;14.318;2023-11-19T03:05:55;12.07;;;6.80;;
15216;SDS011;7711;46.634;14.318;2023-11-19T03:08:23;11.93;;;6.43;;
15216;SDS011;7711;46.634;14.318;2023-11-19T03:10:50;10.17;;;6.03;;
15216;SDS011;7711;46.634;14.318;2023-11-19T03:13:17;10.17;;;5.90;;
15216;SDS011;7711;46.634;14.318;2023-11-19T03:15:44;7.30;;;5.40;;
15216;SDS011;7711;46.634;14.318;2023-11-19T03:18:11;9.67;;;5.50;;
15216;SDS011;7711;46.634;14.318;2023-11-19T03:20:39;8.10;;;5.83;;
15216;SDS011;7711;46.634;14.318;2023-11-19T03:23:06;8.40;;;6.00;;
15216;SDS011;7711;46.634;14.318;2023-11-19T03:25:33;9.40;;;5.60;;
15216;SDS011;7711;46.634;14.318;2023-11-19T03:28:01;9.77;;;5.93;;
15216;SDS011;7711;46.634;14.318;2023-11-19T03:30:29;10.60;;;6.47;;
15216;SDS011;7711;46.634;14.318;2023-11-19T03:32:57;7.50;;;5.43;;
15216;SDS011;7711;46.634;14.318;2023-11-19T03:35:24;10.00;;;5.30;;
15216;SDS011;7711;46.634;14.318;2023-11-19T03:37:54;8.57;;;5.03;;
15216;SDS011;7711;46.634;14.318;2023-11-19T03:40:21;6.57;;;5.13;;
15216;SDS011;7711;46.634;14.318;2023-11-19T03:42:50;8.60;;;5.23;;
15216;SDS011;7711;46.634;14.318;2023-11-19T03:45:17;7.60;;;5.53;;
15216;SDS011;7711;46.634;14.318;2023-11-19T03:47:44;8.27;;;5.40;;
15216;SDS011;7711;46.634;14.318;2023-11-19T03:50:10;7.57;;;4.40;;
15216;SDS011;7711;46.634;14.318;2023-11-19T03:52:42;8.67;;;5.10;;
15216;SDS011;7711;46.634;14.318;2023-11-19T03:55:10;12.07;;;5.57;;
15216;SDS011;7711;46.634;14.318;2023-11-19T03:57:37;8.60;;;5.30;;
15216;SDS011;7711;46.634;14.318;2023-11-19T04:00:05;7.63;;;5.50;;
15216;SDS011;7711;46.634;14.318;2023-11-19T04:02:35;8.30;;;4.90;;
15216;SDS011;7711;46.634;14.318;2023-11-19T04:05:01;7.37;;;4.90;;
15216;SDS011;7711;46.634;14.318;2023-11-19T04:07:28;7.03;;;5.17;;
15216;SDS011;7711;46.634;14.318;2023-11-19T04:09:55;9.80;;;4.90;;
15216;SDS011;7711;46.634;14.318;2023-11-19T04:12:23;8.47;;;5.47;;
15216;SDS011;7711;46.634;14.318;2023-11-19T04:14:50;12.13;;;5.60;;
15216;SDS011;7711;46.634;14.318;2023-11-19T04:17:17;7.00;;;5.53;;
15216;SDS011;7711;46.634;14.318;2023-11-19T04:19:44;7.63;;;5.07;;
15216;SDS011;7711;46.634;14.318;2023-11-19T04:22:11;10.00;;;5.47;;
15216;SDS011;7711;46.634;14.318;2023-11-19T04:24:38;9.90;;;5.30;;
15216;SDS011;7711;46.634;14.318;2023-11-19T04:27:05;7.60;;;5.23;;
15216;SDS011;7711;46.634;14.318;2023-11-19T04:29:34;8.43;;;5.13;;
15216;SDS011;7711;46.634;14.318;2023-11-19T04:32:01;7.77;;;5.50;;
15216;SDS011;7711;46.634;14.318;2023-11-19T04:34:28;10.77;;;5.53;;
15216;SDS011;7711;46.634;14.318;2023-11-19T04:36:55;8.30;;;5.33;;
15216;SDS011;7711;46.634;14.318;2023-11-19T04:39:22;9.90;;;5.30;;
15216;SDS011;7711;46.634;14.318;2023-11-19T04:41:49;8.73;;;5.83;;
15216;SDS011;7711;46.634;14.318;2023-11-19T04:44:17;9.40;;;5.73;;
15216;SDS011;7711;46.634;14.318;2023-11-19T04:46:45;8.87;;;6.23;;
15216;SDS011;7711;46.634;14.318;2023-11-19T04:49:13;9.83;;;6.00;;
15216;SDS011;7711;46.634;14.318;2023-11-19T04:51:42;11.67;;;6.70;;
15216;SDS011;7711;46.634;14.318;2023-11-19T04:54:12;8.63;;;5.93;;
15216;SDS011;7711;46.634;14.318;2023-11-19T04:56:39;10.23;;;6.70;;
15216;SDS011;7711;46.634;14.318;2023-11-19T04:59:06;9.33;;;6.43;;
15216;SDS011;7711;46.634;14.318;2023-11-19T05:01:34;9.43;;;5.90;;
15216;SDS011;7711;46.634;14.318;2023-11-19T05:04:03;11.27;;;6.50;;
15216;SDS011;7711;46.634;14.318;2023-11-19T05:06:30;10.77;;;6.93;;
15216;SDS011;7711;46.634;14.318;2023-11-19T05:08:58;9.67;;;6.23;;
15216;SDS011;7711;46.634;14.318;2023-11-19T05:11:28;8.00;;;5.60;;
15216;SDS011;7711;46.634;14.318;2023-11-19T05:13:55;10.97;;;6.53;;
15216;SDS011;7711;46.634;14.318;2023-11-19T05:16:22;10.30;;;6.27;;
15216;SDS011;7711;46.634;14.318;2023-11-19T05:18:49;8.43;;;6.17;;
15216;SDS011;7711;46.634;14.318;2023-11-19T05:21:17;9.83;;;6.33;;
15216;SDS011;7711;46.634;14.318;2023-11-19T05:23:44;9.53;;;6.17;;
15216;SDS011;7711;46.634;14.318;2023-11-19T05:26:16;9.73;;;5.83;;
15216;SDS011;7711;46.634;14.318;2023-11-19T05:28:44;12.90;;;6.30;;
15216;SDS011;7711;46.634;14.318;2023-11-19T05:31:12;9.57;;;6.53;;
15216;SDS011;7711;46.634;14.318;2023-11-19T05:33:38;10.27;;;7.07;;
15216;SDS011;7711;46.634;14.318;2023-11-19T05:36:06;11.77;;;7.20;;
15216;SDS011;7711;46.634;14.318;2023-11-19T05:38:35;10.13;;;7.30;;
15216;SDS011;7711;46.634;14.318;2023-11-19T05:41:03;10.07;;;7.10;;
15216;SDS011;7711;46.634;14.318;2023-11-19T05:43:30;10.80;;;7.10;;
15216;SDS011;7711;46.634;14.318;2023-11-19T05:45:57;11.77;;;6.93;;
15216;SDS011;7711;46.634;14.318;2023-11-19T05:48:25;10.50;;;6.20;;
15216;SDS011;7711;46.634;14.318;2023-11-19T05:50:52;7.97;;;5.77;;
15216;SDS011;7711;46.634;14.318;2023-11-19T05:53:20;8.07;;;5.83;;
15216;SDS011;7711;46.634;14.318;2023-11-19T05:55:48;9.00;;;5.53;;
15216;SDS011;7711;46.634;14.318;2023-11-19T05:58:21;7.80;;;5.37;;
15216;SDS011;7711;46.634;14.318;2023-11-19T06:00:49;8.03;;;5.37;;
15216;SDS011;7711;46.634;14.318;2023-11-19T06:03:16;9.60;;;5.53;;
15216;SDS011;7711;46.634;14.318;2023-11-19T06:05:44;7.00;;;4.80;;
15216;SDS011;7711;46.634;14.318;2023-11-19T06:08:11;8.20;;;5.10;;
15216;SDS011;7711;46.634;14.318;2023-11-19T06:10:39;7.67;;;4.87;;
15216;SDS011;7711;46.634;14.318;2023-11-19T06:13:08;8.17;;;5.23;;
15216;SDS011;7711;46.634;14.318;2023-11-19T06:15:36;9.13;;;5.50;;
15216;SDS011;7711;46.634;14.318;2023-11-19T06:18:03;9.40;;;5.47;;
15216;SDS011;7711;46.634;14.318;2023-11-19T06:20:30;7.17;;;4.70;;
15216;SDS011;7711;46.634;14.318;2023-11-19T06:22:58;11.30;;;6.03;;
15216;SDS011;7711;46.634;14.318;2023-11-19T06:25:25;10.77;;;6.30;;
15216;SDS011;7711;46.634;14.318;2023-11-19T06:27:53;10.63;;;6.30;;
15216;SDS011;7711;46.634;14.318;2023-11-19T06:30:21;21.63;;;10.03;;
15216;SDS011;7711;46.634;14.318;2023-11-19T06:32:48;22.30;;;9.60;;
15216;SDS011;7711;46.634;14.318;2023-11-19T06:35:15;21.37;;;10.97;;
15216;SDS011;7711;46.634;14.318;2023-11-19T06:37:42;18.13;;;10.13;;
15216;SDS011;7711;46.634;14.318;2023-11-19T06:40:10;14.77;;;9.40;;
15216;SDS011;7711;46.634;14.318;2023-11-19T06:42:37;13.47;;;9.20;;
15216;SDS011;7711;46.634;14.318;2023-11-19T06:45:05;18.23;;;9.83;;
15216;SDS011;7711;46.634;14.318;2023-11-19T06:47:34;13.07;;;10.30;;
15216;SDS011;7711;46.634;14.318;2023-11-19T06:50:01;12.40;;;8.47;;
15216;SDS011;7711;46.634;14.318;2023-11-19T06:52:30;9.57;;;7.27;;
15216;SDS011;7711;46.634;14.318;2023-11-19T06:54:57;9.90;;;6.40;;
15216;SDS011;7711;46.634;14.318;2023-11-19T06:57:24;9.87;;;6.53;;
15216;SDS011;7711;46.634;14.318;2023-11-19T06:59:52;9.23;;;5.33;;
15216;SDS011;7711;46.634;14.318;2023-11-19T07:02:19;8.90;;;5.73;;
15216;SDS011;7711;46.634;14.318;2023-11-19T07:04:47;9.80;;;5.43;;
15216;SDS011;7711;46.634;14.318;2023-11-19T07:07:14;10.53;;;5.93;;
15216;SDS011;7711;46.634;14.318;2023-11-19T07:09:41;9.23;;;5.87;;
15216;SDS011;7711;46.634;14.318;2023-11-19T07:12:08;10.83;;;5.77;;
15216;SDS011;7711;46.634;14.318;2023-11-19T07:14:35;10.03;;;6.43;;
15216;SDS011;7711;46.634;14.318;2023-11-19T07:17:02;12.00;;;6.10;;
15216;SDS011;7711;46.634;14.318;2023-11-19T07:19:29;9.83;;;5.63;;
15216;SDS011;7711;46.634;14.318;2023-11-19T07:21:58;8.53;;;5.83;;
15216;SDS011;7711;46.634;14.318;2023-11-19T07:24:25;8.33;;;5.80;;
15216;SDS011;7711;46.634;14.318;2023-11-19T07:26:53;9.33;;;5.70;;
15216;SDS011;7711;46.634;14.318;2023-11-19T07:29:20;10.60;;;6.17;;
15216;SDS011;7711;46.634;14.318;2023-11-19T07:31:48;7.93;;;5.77;;
15216;SDS011;7711;46.634;14.318;2023-11-19T07:34:16;9.93;;;6.20;;
15216;SDS011;7711;46.634;14.318;2023-11-19T07:36:43;11.30;;;5.50;;
15216;SDS011;7711;46.634;14.318;2023-11-19T07:39:11;8.93;;;5.40;;
15216;SDS011;7711;46.634;14.318;2023-11-19T07:41:38;10.97;;;6.33;;
15216;SDS011;7711;46.634;14.318;2023-11-19T07:44:05;10.00;;;6.20;;
15216;SDS011;7711;46.634;14.318;2023-11-19T07:46:32;10.90;;;5.93;;
15216;SDS011;7711;46.634;14.318;2023-11-19T07:48:59;14.80;;;5.50;;
15216;SDS011;7711;46.634;14.318;2023-11-19T07:51:28;7.60;;;5.30;;
15216;SDS011;7711;46.634;14.318;2023-11-19T07:53:55;7.57;;;5.47;;
15216;SDS011;7711;46.634;14.318;2023-11-19T07:56:24;11.20;;;5.67;;
15216;SDS011;7711;46.634;14.318;2023-11-19T07:58:50;8.00;;;5.47;;
15216;SDS011;7711;46.634;14.318;2023-11-19T08:01:17;7.93;;;5.53;;
15216;SDS011;7711;46.634;14.318;2023-11-19T08:03:45;8.40;;;4.97;;
15216;SDS011;7711;46.634;14.318;2023-11-19T08:06:11;7.17;;;4.83;;
15216;SDS011;7711;46.634;14.318;2023-11-19T08:08:38;7.40;;;5.23;;
15216;SDS011;7711;46.634;14.318;2023-11-19T08:11:05;7.47;;;5.20;;
15216;SDS011;7711;46.634;14.318;2023-11-19T08:13:34;8.97;;;5.90;;
15216;SDS011;7711;46.634;14.318;2023-11-19T08:16:01;10.23;;;6.70;;
15216;SDS011;7711;46.634;14.318;2023-11-19T08:18:28;12.03;;;6.17;;
15216;SDS011;7711;46.634;14.318;2023-11-19T08:20:55;8.27;;;5.37;;
15216;SDS011;7711;46.634;14.318;2023-11-19T08:23:24;9.47;;;6.10;;
15216;SDS011;7711;46.634;14.318;2023-11-19T08:25:53;8.00;;;4.80;;
15216;SDS011;7711;46.634;14.318;2023-11-19T08:28:21;7.67;;;4.90;;
15216;SDS011;7711;46.634;14.318;2023-11-19T08:30:49;7.90;;;5.17;;
15216;SDS011;7711;46.634;14.318;2023-11-19T08:33:16;8.33;;;5.37;;
15216;SDS011;7711;46.634;14.318;2023-11-19T08:35:43;9.47;;;5.77;;
15216;SDS011;7711;46.634;14.318;2023-11-19T08:38:12;8.73;;;5.50;;
15216;SDS011;7711;46.634;14.318;2023-11-19T08:40:39;7.87;;;5.03;;
15216;SDS011;7711;46.634;14.318;2023-11-19T08:43:06;7.63;;;5.10;;
15216;SDS011;7711;46.634;14.318;2023-11-19T08:45:33;8.10;;;4.90;;
15216;SDS011;7711;46.634;14.318;2023-11-19T08:48:02;8.67;;;5.13;;
15216;SDS011;7711;46.634;14.318;2023-11-19T08:50:29;8.40;;;4.90;;
15216;SDS011;7711;46.634;14.318;2023-11-19T08:52:57;7.13;;;4.77;;
15216;SDS011;7711;46.634;14.318;2023-11-19T08:55:23;6.93;;;5.00;;
15216;SDS011;7711;46.634;14.318;2023-11-19T08:57:51;8.10;;;4.97;;
15216;SDS011;7711;46.634;14.318;2023-11-19T09:00:18;8.07;;;5.60;;
15216;SDS011;7711;46.634;14.318;2023-11-19T09:02:46;5.63;;;4.67;;
15216;SDS011;7711;46.634;14.318;2023-11-19T09:05:14;6.00;;;4.70;;
15216;SDS011;7711;46.634;14.318;2023-11-19T09:07:41;8.80;;;6.60;;
15216;SDS011;7711;46.634;14.318;2023-11-19T09:10:08;7.07;;;5.10;;
15216;SDS011;7711;46.634;14.318;2023-11-19T09:12:36;8.33;;;4.87;;
15216;SDS011;7711;46.634;14.318;2023-11-19T09:15:04;7.83;;;5.57;;
15216;SDS011;7711;46.634;14.318;2023-11-19T09:17:31;8.17;;;5.63;;
15216;SDS011;7711;46.634;14.318;2023-11-19T09:19:58;5.67;;;4.73;;
15216;SDS011;7711;46.634;14.318;2023-11-19T09:22:27;8.70;;;5.57;;
15216;SDS011;7711;46.634;14.318;2023-11-19T09:24:53;8.53;;;5.57;;
15216;SDS011;7711;46.634;14.318;2023-11-19T09:27:20;7.20;;;5.13;;
15216;SDS011;7711;46.634;14.318;2023-11-19T09:29:47;7.90;;;5.93;;
15216;SDS011;7711;46.634;14.318;2023-11-19T09:32:20;6.73;;;5.33;;
15216;SDS011;7711;46.634;14.318;2023-11-19T09:34:47;9.13;;;5.50;;
15216;SDS011;7711;46.634;14.318;2023-11-19T09:37:13;7.13;;;5.50;;
15216;SDS011;7711;46.634;14.318;2023-11-19T09:39:42;8.67;;;6.13;;
15216;SDS011;7711;46.634;14.318;2023-11-19T09:42:09;7.07;;;5.50;;
15216;SDS011;7711;46.634;14.318;2023-11-19T09:44:36;9.13;;;6.10;;
15216;SDS011;7711;46.634;14.318;2023-11-19T09:47:04;10.73;;;6.10;;
15216;SDS011;7711;46.634;14.318;2023-11-19T09:49:32;7.53;;;6.03;;
15216;SDS011;7711;46.634;14.318;2023-11-19T09:52:01;9.03;;;5.63;;
15216;SDS011;7711;46.634;14.318;2023-11-19T09:54:28;11.13;;;6.03;;
15216;SDS011;7711;46.634;14.318;2023-11-19T09:56:57;8.57;;;6.10;;
15216;SDS011;7711;46.634;14.318;2023-11-19T09:59:28;7.93;;;5.53;;
15216;SDS011;7711;46.634;14.318;2023-11-19T10:01:55;8.37;;;5.90;;
15216;SDS011;7711;46.634;14.318;2023-11-19T10:04:22;8.60;;;5.87;;
15216;SDS011;7711;46.634;14.318;2023-11-19T10:06:51;10.77;;;5.77;;
15216;SDS011;7711;46.634;14.318;2023-11-19T10:09:18;10.03;;;6.07;;
15216;SDS011;7711;46.634;14.318;2023-11-19T10:11:45;7.53;;;5.73;;
15216;SDS011;7711;46.634;14.318;2023-11-19T10:14:14;10.33;;;6.27;;
15216;SDS011;7711;46.634;14.318;2023-11-19T10:16:44;8.07;;;6.03;;
15216;SDS011;7711;46.634;14.318;2023-11-19T10:19:12;12.97;;;9.10;;
15216;SDS011;7711;46.634;14.318;2023-11-19T10:21:45;14.93;;;9.83;;
15216;SDS011;7711;46.634;14.318;2023-11-19T10:24:12;10.63;;;6.83;;
15216;SDS011;7711;46.634;14.318;2023-11-19T10:26:39;11.10;;;6.87;;
15216;SDS011;7711;46.634;14.318;2023-11-19T10:29:07;9.60;;;6.57;;
15216;SDS011;7711;46.634;14.318;2023-11-19T10:31:35;8.03;;;6.27;;
15216;SDS011;7711;46.634;14.318;2023-11-19T10:34:03;8.87;;;5.73;;
15216;SDS011;7711;46.634;14.318;2023-11-19T10:36:39;7.10;;;4.87;;
15216;SDS011;7711;46.634;14.318;2023-11-19T10:39:07;7.00;;;4.50;;
15216;SDS011;7711;46.634;14.318;2023-11-19T10:41:35;6.27;;;4.17;;
15216;SDS011;7711;46.634;14.318;2023-11-19T10:44:02;7.20;;;5.03;;
15216;SDS011;7711;46.634;14.318;2023-11-19T10:46:38;5.63;;;4.30;;
15216;SDS011;7711;46.634;14.318;2023-11-19T10:49:06;4.60;;;3.70;;
15216;SDS011;7711;46.634;14.318;2023-11-19T10:51:33;4.57;;;3.20;;
15216;SDS011;7711;46.634;14.318;2023-11-19T10:54:02;5.10;;;3.13;;
15216;SDS011;7711;46.634;14.318;2023-11-19T10:56:30;3.40;;;2.90;;
15216;SDS011;7711;46.634;14.318;2023-11-19T10:58:58;5.27;;;3.17;;
15216;SDS011;7711;46.634;14.318;2023-11-19T11:01:26;5.73;;;3.30;;
15216;SDS011;7711;46.634;14.318;2023-11-19T11:04:00;3.30;;;2.80;;
15216;SDS011;7711;46.634;14.318;2023-11-19T11:06:29;4.17;;;3.23;;
15216;SDS011;7711;46.634;14.318;2023-11-19T11:08:56;6.70;;;3.37;;
15216;SDS011;7711;46.634;14.318;2023-11-19T11:11:25;4.60;;;3.30;;
15216;SDS011;7711;46.634;14.318;2023-11-19T11:13:53;3.47;;;2.77;;
15216;SDS011;7711;46.634;14.318;2023-11-19T11:16:22;4.70;;;3.23;;
15216;SDS011;7711;46.634;14.318;2023-11-19T11:18:51;3.97;;;2.97;;
15216;SDS011;7711;46.634;14.318;2023-11-19T11:21:22;4.27;;;3.50;;
15216;SDS011;7711;46.634;14.318;2023-11-19T11:29:58;4.17;;;3.43;;
15216;SDS011;7711;46.634;14.318;2023-11-19T11:32:37;3.50;;;3.10;;
15216;SDS011;7711;46.634;14.318;2023-11-19T11:35:17;3.97;;;3.40;;
15216;SDS011;7711;46.634;14.318;2023-11-19T11:38:00;5.20;;;3.37;;
15216;SDS011;7711;46.634;14.318;2023-11-19T11:40:32;4.70;;;3.60;;
15216;SDS011;7711;46.634;14.318;2023-11-19T11:42:59;6.23;;;4.00;;
15216;SDS011;7711;46.634;14.318;2023-11-19T11:45:35;4.73;;;3.40;;
15216;SDS011;7711;46.634;14.318;2023-11-19T11:48:12;5.80;;;4.30;;
15216;SDS011;7711;46.634;14.318;2023-11-19T11:50:47;6.03;;;4.07;;
15216;SDS011;7711;46.634;14.318;2023-11-19T11:53:17;5.77;;;4.00;;
15216;SDS011;7711;46.634;14.318;2023-11-19T11:55:55;4.37;;;3.63;;
15216;SDS011;7711;46.634;14.318;2023-11-19T11:58:30;5.77;;;3.67;;
15216;SDS011;7711;46.634;14.318;2023-11-19T12:00:58;5.60;;;3.70;;
15216;SDS011;7711;46.634;14.318;2023-11-19T12:03:27;5.63;;;3.90;;
15216;SDS011;7711;46.634;14.318;2023-11-19T12:05:55;3.97;;;3.20;;
15216;SDS011;7711;46.634;14.318;2023-11-19T12:08:26;4.40;;;3.53;;
15216;SDS011;7711;46.634;14.318;2023-11-19T12:10:55;5.30;;;3.60;;
15216;SDS011;7711;46.634;14.318;2023-11-19T12:13:24;4.40;;;3.40;;
15216;SDS011;7711;46.634;14.318;2023-11-19T12:16:08;5.00;;;3.33;;
15216;SDS011;7711;46.634;14.318;2023-11-19T12:18:35;4.47;;;2.90;;
15216;SDS011;7711;46.634;14.318;2023-11-19T12:21:05;3.47;;;3.00;;
15216;SDS011;7711;46.634;14.318;2023-11-19T12:23:36;4.83;;;3.23;;
15216;SDS011;7711;46.634;14.318;2023-11-19T12:29:00;3.90;;;3.30;;
15216;SDS011;7711;46.634;14.318;2023-11-19T12:31:31;4.10;;;3.10;;
15216;SDS011;7711;46.634;14.318;2023-11-19T12:34:05;3.93;;;3.20;;
15216;SDS011;7711;46.634;14.318;2023-11-19T12:36:36;3.40;;;2.90;;
15216;SDS011;7711;46.634;14.318;2023-11-19T12:39:06;3.87;;;3.17;;
15216;SDS011;7711;46.634;14.318;2023-11-19T12:41:48;7.33;;;3.57;;
15216;SDS011;7711;46.634;14.318;2023-11-19T12:44:19;5.27;;;3.13;;
15216;SDS011;7711;46.634;14.318;2023-11-19T12:46:46;3.80;;;3.00;;
15216;SDS011;7711;46.634;14.318;2023-11-19T12:49:25;4.80;;;3.70;;
15216;SDS011;7711;46.634;14.318;2023-11-19T12:51:52;4.60;;;3.50;;
15216;SDS011;7711;46.634;14.318;2023-11-19T12:54:31;6.50;;;3.08;;
15216;SDS011;7711;46.634;14.318;2023-11-19T12:56:58;4.72;;;2.97;;
15216;SDS011;7711;46.634;14.318;2023-11-19T12:59:25;4.72;;;2.97;;
15216;SDS011;7711;46.634;14.318;2023-11-19T13:01:55;3.28;;;2.75;;
15216;SDS011;7711;46.634;14.318;2023-11-19T13:04:23;2.80;;;2.47;;
15216;SDS011;7711;46.634;14.318;2023-11-19T13:06:53;4.30;;;2.67;;
15216;SDS011;7711;46.634;14.318;2023-11-19T13:09:23;3.25;;;2.80;;
15216;SDS011;7711;46.634;14.318;2023-11-19T13:11:51;4.00;;;2.60;;
15216;SDS011;7711;46.634;14.318;2023-11-19T13:14:18;3.15;;;2.70;;
15216;SDS011;7711;46.634;14.318;2023-11-19T13:16:46;3.00;;;2.55;;
15216;SDS011;7711;46.634;14.318;2023-11-19T13:19:13;2.88;;;2.63;;
15216;SDS011;7711;46.634;14.318;2023-11-19T13:21:41;3.22;;;2.70;;
15216;SDS011;7711;46.634;14.318;2023-11-19T13:24:11;3.63;;;3.10;;
15216;SDS011;7711;46.634;14.318;2023-11-19T13:26:39;3.88;;;2.75;;
15216;SDS011;7711;46.634;14.318;2023-11-19T13:29:06;3.65;;;2.92;;
15216;SDS011;7711;46.634;14.318;2023-11-19T13:31:35;4.47;;;2.80;;
15216;SDS011;7711;46.634;14.318;2023-11-19T13:34:02;4.07;;;3.08;;
15216;SDS011;7711;46.634;14.318;2023-11-19T13:36:29;3.40;;;2.80;;
15216;SDS011;7711;46.634;14.318;2023-11-19T13:38:56;3.53;;;2.92;;
15216;SDS011;7711;46.634;14.318;2023-11-19T13:41:24;4.57;;;2.90;;
15216;SDS011;7711;46.634;14.318;2023-11-19T13:43:53;3.22;;;2.88;;
15216;SDS011;7711;46.634;14.318;2023-11-19T13:46:20;5.05;;;3.05;;
15216;SDS011;7711;46.634;14.318;2023-11-19T13:48:47;3.33;;;2.65;;
15216;SDS011;7711;46.634;14.318;2023-11-19T13:51:15;3.92;;;3.10;;
15216;SDS011;7711;46.634;14.318;2023-11-19T13:53:42;3.53;;;2.88;;
15216;SDS011;7711;46.634;14.318;2023-11-19T13:56:09;3.63;;;2.90;;
15216;SDS011;7711;46.634;14.318;2023-11-19T13:58:36;3.10;;;2.80;;
15216;SDS011;7711;46.634;14.318;2023-11-19T14:01:06;3.25;;;2.80;;
15216;SDS011;7711;46.634;14.318;2023-11-19T14:03:34;3.80;;;3.30;;
15216;SDS011;7711;46.634;14.318;2023-11-19T14:06:01;4.97;;;3.25;;
15216;SDS011;7711;46.634;14.318;2023-11-19T14:08:28;4.57;;;3.42;;
15216;SDS011;7711;46.634;14.318;2023-11-19T14:10:55;6.47;;;3.72;;
15216;SDS011;7711;46.634;14.318;2023-11-19T14:13:22;3.42;;;3.10;;
15216;SDS011;7711;46.634;14.318;2023-11-19T14:15:49;5.40;;;3.28;;
15216;SDS011;7711;46.634;14.318;2023-11-19T14:18:18;4.18;;;3.20;;
15216;SDS011;7711;46.634;14.318;2023-11-19T14:20:45;4.97;;;3.35;;
15216;SDS011;7711;46.634;14.318;2023-11-19T14:23:12;3.38;;;3.08;;
15216;SDS011;7711;46.634;14.318;2023-11-19T14:25:39;3.40;;;3.08;;
15216;SDS011;7711;46.634;14.318;2023-11-19T14:28:06;6.93;;;3.40;;
15216;SDS011;7711;46.634;14.318;2023-11-19T14:30:33;4.72;;;4.07;;
15216;SDS011;7711;46.634;14.318;2023-11-19T14:33:00;5.40;;;4.70;;
15216;SDS011;7711;46.634;14.318;2023-11-19T14:35:29;5.43;;;4.13;;
15216;SDS011;7711;46.634;14.318;2023-11-19T14:37:57;5.55;;;4.00;;
15216;SDS011;7711;46.634;14.318;2023-11-19T14:40:25;3.55;;;3.25;;
15216;SDS011;7711;46.634;14.318;2023-11-19T14:42:52;3.92;;;3.53;;
15216;SDS011;7711;46.634;14.318;2023-11-19T14:45:19;4.97;;;3.67;;
15216;SDS011;7711;46.634;14.318;2023-11-19T14:47:47;4.00;;;3.30;;
15216;SDS011;7711;46.634;14.318;2023-11-19T14:50:13;5.22;;;3.22;;
15216;SDS011;7711;46.634;14.318;2023-11-19T14:52:42;4.10;;;3.50;;
15216;SDS011;7711;46.634;14.318;2023-11-19T14:55:09;5.80;;;3.37;;
15216;SDS011;7711;46.634;14.318;2023-11-19T14:57:36;3.90;;;3.37;;